Главная страница
METAR-TAF:

METAR-TAF

Аэропорты :

Griffiss_Air_Force_Base

Rome, Нью-Йорк, США

широта: 43-14N, долгота: 075-24W, высота над уровнем моря: 154 м

Текущие метеонаблюдения

Эта сводка был подготовлена 15 минут назад, в 01:53 UTC
Ветер 11 Узел от северно-северо-западный
Температура -8°C
Влажность 67%
Давление 1021 hPa
Видимость: 16.1 км
небольшая облачность на высоте 4500 фута

METAR: KRME 130153Z 33011KT 10SM FEW045 M08/M13 A3014 RMK AO2 PK WND 31026/0115 SLP214 T10831128

Время: 21:08 (02:08 UTC)

Прогноз

Эта сводка был подготовлена 2 часа и 31 минут назад, в 23:37 UTC
Прогноз действительный с 13-го 00 UTC до 13-го 24 UTC
Ветер 9 Узел от западно-северо-западный
Видимость: 10 км
Рассеянная облачность на высоте 3500 фута
С 13-го 1600 UTC
Ветер 6 Узел от западно-северо-западный
Видимость: 10 км
Отдельные облака на высоте 6000 фута

TAF: KRME 122337Z 1300/1324 30009KT P6SM BKN035 FM131600 29006KT P6SM SCT060

Метеонаблюдения и прогнозы для более 4000 аэропортов (сводки METAR и TAF).

Имеющиеся станции представлены на карте желтыми и красными точками.

Чтобы увидеть название станции, наведите на нее мышь.

Затем щелкните, чтобы увидеть метеонаблюдения и метеопрогнозы.

Управление картой: чтобы увеличить масштаб, щелкните зеленые кнопки с черным крестиком; чтобы уменьшить масштаб, щелкните зеленую кнопку с тире; для просмотра соседних карт щелкайте зеленые стрелки.


METAR-TAF: